createdAt,value
2022-12-01T00:00:13.181Z,41
2022-12-01T00:01:13.166Z,37
2022-12-01T00:02:13.289Z,37
2022-12-01T00:03:13.251Z,33
2022-12-01T00:04:13.203Z,37
2022-12-01T00:05:13.170Z,34
2022-12-01T00:06:13.162Z,34
2022-12-01T00:07:13.153Z,34
2022-12-01T00:08:13.149Z,34
2022-12-01T00:09:19.243Z,35
2022-12-01T00:10:13.155Z,34
2022-12-01T00:11:13.158Z,30
2022-12-01T00:12:13.155Z,29
2022-12-01T00:13:13.160Z,33
2022-12-01T00:14:13.156Z,32
2022-12-01T00:15:13.161Z,36
2022-12-01T00:16:13.269Z,39
2022-12-01T00:17:13.182Z,38
2022-12-01T00:19:13.159Z,35
2022-12-01T00:20:13.166Z,41
2022-12-01T00:21:13.186Z,35
2022-12-01T00:23:13.161Z,37
2022-12-01T00:24:13.170Z,31
2022-12-01T00:25:13.153Z,32
2022-12-01T00:26:13.171Z,36
2022-12-01T00:27:13.161Z,35
2022-12-01T00:28:13.164Z,36
2022-12-01T00:29:13.162Z,39
2022-12-01T00:30:13.171Z,36
2022-12-01T00:31:13.156Z,35
2022-12-01T00:32:13.248Z,38
2022-12-01T00:33:13.168Z,34
2022-12-01T00:34:13.159Z,36
2022-12-01T00:35:13.190Z,37
2022-12-01T00:36:13.186Z,46
2022-12-01T00:37:13.168Z,45
2022-12-01T00:38:13.200Z,38
2022-12-01T00:39:13.163Z,38
2022-12-01T00:40:13.181Z,42
2022-12-01T00:41:13.185Z,41
2022-12-01T00:42:13.664Z,40
2022-12-01T00:43:13.196Z,42
2022-12-01T00:44:13.160Z,37
2022-12-01T00:45:13.189Z,41
2022-12-01T00:46:13.210Z,39
2022-12-01T00:47:13.163Z,38
2022-12-01T00:48:13.196Z,34
2022-12-01T00:49:13.159Z,42
2022-12-01T00:50:13.171Z,42
2022-12-01T00:51:13.164Z,39
2022-12-01T00:52:13.171Z,40
2022-12-01T00:53:13.175Z,41
2022-12-01T00:54:13.184Z,41
2022-12-01T00:55:13.194Z,39
2022-12-01T00:56:13.169Z,41
2022-12-01T00:57:13.186Z,41
2022-12-01T00:58:13.176Z,42
2022-12-01T00:59:13.163Z,42
2022-12-01T01:00:13.166Z,35
2022-12-01T01:01:13.287Z,43
2022-12-01T01:02:13.189Z,44
2022-12-01T01:03:13.166Z,43
2022-12-01T01:04:13.184Z,46
2022-12-01T01:05:13.183Z,44
2022-12-01T01:06:13.180Z,38
2022-12-01T01:07:13.183Z,47
2022-12-01T01:08:13.185Z,39
2022-12-01T01:09:13.169Z,44
2022-12-01T01:10:13.174Z,40
2022-12-01T01:11:13.178Z,49
2022-12-01T01:12:13.221Z,41
2022-12-01T01:13:13.183Z,44
2022-12-01T01:14:13.178Z,49
2022-12-01T01:15:13.183Z,48
2022-12-01T01:16:13.252Z,50
2022-12-01T01:17:13.177Z,44
2022-12-01T01:18:13.176Z,48
2022-12-01T01:19:13.196Z,52
2022-12-01T01:20:13.177Z,41
2022-12-01T01:22:13.177Z,42
2022-12-01T01:23:13.177Z,43
2022-12-01T01:24:13.173Z,39
2022-12-01T01:25:13.172Z,46
2022-12-01T01:26:13.167Z,43
2022-12-01T01:27:13.186Z,43
2022-12-01T01:28:13.192Z,41
2022-12-01T01:29:13.177Z,39
2022-12-01T01:30:13.174Z,41
2022-12-01T01:31:13.282Z,42
2022-12-01T01:32:13.180Z,44
2022-12-01T01:33:13.180Z,43
2022-12-01T01:34:13.204Z,45
2022-12-01T01:35:13.190Z,43
2022-12-01T01:36:13.173Z,44
2022-12-01T01:37:13.188Z,41
2022-12-01T01:38:13.188Z,46
2022-12-01T01:39:13.186Z,36
2022-12-01T01:40:13.179Z,45
2022-12-01T01:41:13.204Z,42
2022-12-01T01:42:13.194Z,41
2022-12-01T01:43:13.183Z,43
2022-12-01T01:44:13.197Z,37
2022-12-01T01:45:13.193Z,40
2022-12-01T01:46:13.258Z,43
2022-12-01T01:47:13.182Z,38
2022-12-01T01:48:13.198Z,37
2022-12-01T01:49:13.189Z,37
2022-12-01T01:50:13.222Z,43
2022-12-01T01:51:13.192Z,39
2022-12-01T01:52:13.184Z,38
2022-12-01T01:53:13.187Z,42
2022-12-01T01:54:13.197Z,38
2022-12-01T01:55:13.189Z,38
2022-12-01T01:56:13.188Z,35
2022-12-01T01:57:13.190Z,36
2022-12-01T01:58:13.189Z,39
2022-12-01T01:59:13.191Z,38
2022-12-01T02:00:13.202Z,39
2022-12-01T02:01:13.315Z,38
2022-12-01T02:02:13.255Z,34
2022-12-01T02:03:13.190Z,30
2022-12-01T02:04:13.182Z,31
2022-12-01T02:05:13.175Z,35
2022-12-01T02:06:13.184Z,36
2022-12-01T02:07:13.184Z,33
2022-12-01T02:08:13.195Z,33
2022-12-01T02:09:13.195Z,38
2022-12-01T02:10:13.189Z,32
2022-12-01T02:11:13.192Z,30
2022-12-01T02:12:13.188Z,29
2022-12-01T02:13:13.206Z,29
2022-12-01T02:14:13.188Z,32
2022-12-01T02:15:13.195Z,31
2022-12-01T02:16:13.262Z,33
2022-12-01T02:17:13.181Z,30
2022-12-01T02:18:13.184Z,32
2022-12-01T02:19:13.188Z,32
2022-12-01T02:20:13.195Z,32
2022-12-01T02:21:13.236Z,38
2022-12-01T02:22:13.191Z,29
2022-12-01T02:23:13.192Z,33
2022-12-01T02:24:13.194Z,40
2022-12-01T02:25:13.212Z,35
2022-12-01T02:26:13.197Z,31
2022-12-01T02:27:13.190Z,32
2022-12-01T02:28:13.229Z,35
2022-12-01T02:29:13.197Z,36
2022-12-01T02:30:13.203Z,36
2022-12-01T02:31:15.071Z,34
2022-12-01T02:32:13.216Z,36
2022-12-01T02:33:13.206Z,41
2022-12-01T02:34:13.199Z,37
2022-12-01T02:35:13.228Z,33
2022-12-01T02:36:13.209Z,38
2022-12-01T02:37:13.198Z,39
2022-12-01T02:38:13.197Z,38
2022-12-01T02:39:13.192Z,40
2022-12-01T02:40:13.257Z,33
2022-12-01T02:41:13.197Z,39
2022-12-01T02:42:13.205Z,37
2022-12-01T02:43:13.200Z,35
2022-12-01T02:44:13.206Z,41
2022-12-01T02:45:13.193Z,33
2022-12-01T02:46:13.227Z,31
2022-12-01T02:47:13.202Z,38
2022-12-01T02:48:13.183Z,38
2022-12-01T02:49:13.204Z,35
2022-12-01T02:50:13.211Z,40
2022-12-01T02:51:13.218Z,36
2022-12-01T02:53:13.190Z,35
2022-12-01T02:54:13.261Z,36
2022-12-01T02:55:13.210Z,28
2022-12-01T02:56:13.204Z,29
2022-12-01T02:57:13.232Z,28
2022-12-01T02:58:13.199Z,28
2022-12-01T02:59:13.203Z,25
2022-12-01T03:00:13.192Z,31
2022-12-01T03:01:13.271Z,32
2022-12-01T03:02:13.272Z,27
2022-12-01T03:03:13.193Z,33
2022-12-01T03:04:13.201Z,30
2022-12-01T03:05:13.204Z,28
2022-12-01T03:06:13.195Z,32
2022-12-01T03:07:13.207Z,30
2022-12-01T03:08:13.203Z,30
2022-12-01T03:09:13.228Z,30
2022-12-01T03:10:13.205Z,38
2022-12-01T03:11:13.210Z,34
2022-12-01T03:12:13.199Z,33
2022-12-01T03:13:13.205Z,32
2022-12-01T03:14:13.201Z,32
2022-12-01T03:16:13.277Z,32
2022-12-01T03:17:13.217Z,31
2022-12-01T03:18:13.218Z,34
2022-12-01T03:19:13.213Z,33
2022-12-01T03:20:13.203Z,38
2022-12-01T03:21:13.197Z,29
2022-12-01T03:22:13.206Z,34
2022-12-01T03:23:13.229Z,33
2022-12-01T03:24:13.188Z,35
2022-12-01T03:25:13.208Z,36
2022-12-01T03:26:13.207Z,38
2022-12-01T03:27:13.234Z,32
2022-12-01T03:28:21.090Z,32
2022-12-01T03:29:13.199Z,34
2022-12-01T03:30:13.201Z,31
2022-12-01T03:31:13.308Z,32
2022-12-01T03:32:13.199Z,31
2022-12-01T03:33:13.210Z,35
2022-12-01T03:34:13.210Z,33
2022-12-01T03:35:13.217Z,31
2022-12-01T03:36:13.213Z,33
2022-12-01T03:37:13.205Z,28
2022-12-01T03:38:13.200Z,37
2022-12-01T03:39:13.225Z,33
2022-12-01T03:40:13.204Z,31
2022-12-01T03:41:13.272Z,32
2022-12-01T03:42:13.214Z,33
2022-12-01T03:43:13.200Z,39
2022-12-01T03:44:13.201Z,31
2022-12-01T03:45:13.216Z,34
2022-12-01T03:46:13.274Z,34
2022-12-01T03:47:13.218Z,30
2022-12-01T03:48:13.201Z,33
2022-12-01T03:49:13.202Z,35
2022-12-01T03:50:13.213Z,34
2022-12-01T03:51:13.203Z,33
2022-12-01T03:52:13.203Z,40
2022-12-01T03:53:13.209Z,32
2022-12-01T03:54:13.227Z,35
2022-12-01T03:55:13.202Z,33
2022-12-01T03:56:13.201Z,34
2022-12-01T03:57:13.221Z,37
2022-12-01T03:59:13.208Z,36
2022-12-01T04:00:13.203Z,33
2022-12-01T04:01:13.212Z,38
2022-12-01T04:02:13.263Z,39
2022-12-01T04:03:13.350Z,42
2022-12-01T04:04:13.205Z,39
2022-12-01T04:05:13.207Z,37
2022-12-01T04:06:13.205Z,34
2022-12-01T04:07:13.223Z,38
2022-12-01T04:08:13.311Z,38
2022-12-01T04:09:13.227Z,36
2022-12-01T04:10:13.220Z,38
2022-12-01T04:11:13.212Z,38
2022-12-01T04:12:13.210Z,37
2022-12-01T04:13:13.207Z,35
2022-12-01T04:14:13.205Z,38
2022-12-01T04:15:13.228Z,45
2022-12-01T04:16:13.275Z,37
2022-12-01T04:17:13.216Z,38
2022-12-01T04:18:13.206Z,36
2022-12-01T04:19:13.209Z,40
2022-12-01T04:20:13.211Z,43
2022-12-01T04:21:13.209Z,38
2022-12-01T04:22:13.217Z,40
2022-12-01T04:23:13.206Z,35
2022-12-01T04:24:13.216Z,40
2022-12-01T04:25:13.241Z,41
2022-12-01T04:26:15.852Z,40
2022-12-01T04:27:13.219Z,46
2022-12-01T04:28:13.220Z,45
2022-12-01T04:29:13.219Z,40
2022-12-01T04:30:13.212Z,37
2022-12-01T04:31:13.264Z,37
2022-12-01T04:32:13.252Z,47
2022-12-01T04:33:13.215Z,42
2022-12-01T04:34:13.209Z,41
2022-12-01T04:35:13.201Z,49
2022-12-01T04:36:13.217Z,43
2022-12-01T04:37:13.212Z,50
2022-12-01T04:38:13.220Z,38
2022-12-01T04:39:13.224Z,43
2022-12-01T04:40:13.221Z,40
2022-12-01T04:41:13.249Z,38
2022-12-01T04:42:13.219Z,39
2022-12-01T04:43:13.219Z,40
2022-12-01T04:44:13.233Z,42
2022-12-01T04:45:13.222Z,36
2022-12-01T04:46:13.262Z,35
2022-12-01T04:47:13.224Z,34
2022-12-01T04:48:13.216Z,36
2022-12-01T04:49:13.220Z,37
2022-12-01T04:50:13.221Z,35
2022-12-01T04:51:13.210Z,34
2022-12-01T04:52:13.228Z,35
2022-12-01T04:53:13.226Z,33
2022-12-01T04:54:13.212Z,35
2022-12-01T04:55:13.220Z,42
2022-12-01T04:56:13.251Z,37
2022-12-01T04:57:13.226Z,33
2022-12-01T04:58:13.220Z,38
2022-12-01T04:59:13.225Z,37
2022-12-01T05:01:13.286Z,37
2022-12-01T05:02:13.238Z,33
2022-12-01T05:03:15.216Z,38
2022-12-01T05:04:13.219Z,34
2022-12-01T05:05:13.222Z,34
2022-12-01T05:06:13.273Z,36
2022-12-01T05:07:13.233Z,37
2022-12-01T05:08:13.222Z,37
2022-12-01T05:09:17.187Z,31
2022-12-01T05:10:13.225Z,35
2022-12-01T05:12:13.223Z,32
2022-12-01T05:13:13.218Z,35
2022-12-01T05:14:13.225Z,32
2022-12-01T05:15:13.226Z,37
2022-12-01T05:16:14.075Z,36
2022-12-01T05:17:13.227Z,36
2022-12-01T05:18:13.242Z,32
2022-12-01T05:19:13.227Z,32
2022-12-01T05:20:13.226Z,35
2022-12-01T05:21:13.235Z,29
2022-12-01T05:22:13.233Z,32
2022-12-01T05:23:16.745Z,34
2022-12-01T05:24:13.223Z,37
2022-12-01T05:27:13.257Z,31
2022-12-01T05:28:13.224Z,32
2022-12-01T05:29:13.228Z,31
2022-12-01T05:30:13.237Z,33
2022-12-01T05:31:13.302Z,35
2022-12-01T05:32:13.232Z,32
2022-12-01T05:33:13.236Z,31
2022-12-01T05:34:13.229Z,29
2022-12-01T05:35:13.229Z,32
2022-12-01T05:36:13.228Z,30
2022-12-01T05:37:13.229Z,28
2022-12-01T05:38:13.238Z,33
2022-12-01T05:39:13.228Z,39
2022-12-01T05:40:13.254Z,41
2022-12-01T05:41:13.232Z,34
2022-12-01T05:42:13.227Z,36
2022-12-01T05:43:13.232Z,35
2022-12-01T05:45:13.236Z,36
2022-12-01T05:46:13.299Z,36
2022-12-01T05:47:13.241Z,38
2022-12-01T05:48:13.235Z,37
2022-12-01T05:49:13.224Z,37
2022-12-01T05:50:13.243Z,43
2022-12-01T05:51:13.237Z,40
2022-12-01T05:52:13.237Z,37
2022-12-01T05:53:13.253Z,40
2022-12-01T05:54:13.245Z,38
2022-12-01T05:55:13.240Z,39
2022-12-01T05:56:13.234Z,35
2022-12-01T05:57:13.268Z,33
2022-12-01T05:58:13.258Z,32
2022-12-01T05:59:13.239Z,40
2022-12-01T06:00:13.248Z,36
2022-12-01T06:01:13.241Z,35
2022-12-01T06:02:13.254Z,34
2022-12-01T06:03:13.239Z,33
2022-12-01T06:04:13.333Z,35
2022-12-01T06:05:13.249Z,33
2022-12-01T06:06:13.233Z,35
2022-12-01T06:07:13.243Z,40
2022-12-01T06:08:13.234Z,38
2022-12-01T06:09:13.239Z,38
2022-12-01T06:10:13.228Z,34
2022-12-01T06:11:13.264Z,36
2022-12-01T06:12:13.253Z,38
2022-12-01T06:13:13.271Z,43
2022-12-01T06:14:13.290Z,41
2022-12-01T06:15:13.244Z,42
2022-12-01T06:16:13.343Z,41
2022-12-01T06:17:13.262Z,40
2022-12-01T06:18:13.237Z,37
2022-12-01T06:19:13.241Z,38
2022-12-01T06:20:13.245Z,51
2022-12-01T06:21:13.239Z,30
2022-12-01T06:22:13.238Z,20
2022-12-01T06:23:13.242Z,19
2022-12-01T06:24:13.248Z,19
2022-12-01T06:25:13.267Z,28
2022-12-01T06:26:13.261Z,40
2022-12-01T06:27:13.234Z,36
2022-12-01T06:28:13.253Z,37
2022-12-01T06:29:13.280Z,33
2022-12-01T06:30:13.262Z,38
2022-12-01T06:31:13.237Z,33
2022-12-01T06:32:13.237Z,34
2022-12-01T06:33:13.238Z,33
2022-12-01T06:34:13.265Z,34
2022-12-01T06:35:13.242Z,37
2022-12-01T06:36:13.260Z,36
2022-12-01T06:37:13.263Z,37
2022-12-01T06:38:13.279Z,37
2022-12-01T06:39:13.268Z,37
2022-12-01T06:40:13.269Z,39
2022-12-01T06:41:13.268Z,38
2022-12-01T06:42:13.239Z,34
2022-12-01T06:43:13.243Z,40
2022-12-01T06:44:13.258Z,35
2022-12-01T06:45:13.256Z,38
2022-12-01T06:46:13.366Z,40
2022-12-01T06:47:13.240Z,36
2022-12-01T06:48:13.273Z,44
2022-12-01T06:49:13.250Z,43
2022-12-01T06:50:13.262Z,45
2022-12-01T06:51:13.275Z,39
2022-12-01T06:52:13.252Z,45
2022-12-01T06:53:13.260Z,44
2022-12-01T06:54:13.276Z,46
2022-12-01T06:55:13.260Z,47
2022-12-01T06:56:13.273Z,42
2022-12-01T06:57:13.273Z,42
2022-12-01T06:58:13.262Z,41
2022-12-01T06:59:13.264Z,42
2022-12-01T07:00:13.274Z,42
2022-12-01T07:01:13.302Z,45
2022-12-01T07:02:13.320Z,42
2022-12-01T07:03:13.309Z,44
2022-12-01T07:04:13.281Z,51
2022-12-01T07:05:13.250Z,41
2022-12-01T07:06:13.261Z,40
2022-12-01T07:07:13.271Z,41
2022-12-01T07:08:13.295Z,44
2022-12-01T07:09:13.243Z,41
2022-12-01T07:10:13.249Z,40
2022-12-01T07:11:13.253Z,44
2022-12-01T07:12:13.267Z,34
2022-12-01T07:13:13.244Z,34
2022-12-01T07:14:13.250Z,40
2022-12-01T07:15:13.290Z,40
2022-12-01T07:16:13.315Z,38
2022-12-01T07:17:13.255Z,40
2022-12-01T07:18:13.258Z,42
2022-12-01T07:19:13.267Z,38
2022-12-01T07:20:13.255Z,40
2022-12-01T07:21:13.286Z,41
2022-12-01T07:22:13.286Z,42
2022-12-01T07:23:13.255Z,38
2022-12-01T07:24:13.254Z,42
2022-12-01T07:25:13.258Z,40
2022-12-01T07:26:13.256Z,38
2022-12-01T07:27:13.247Z,38
2022-12-01T07:28:13.276Z,37
2022-12-01T07:29:13.269Z,38
2022-12-01T07:30:13.279Z,38
2022-12-01T07:31:13.421Z,37
2022-12-01T07:32:13.265Z,37
2022-12-01T07:33:13.279Z,36
2022-12-01T07:34:13.273Z,41
2022-12-01T07:35:13.273Z,37
2022-12-01T07:37:13.324Z,34
2022-12-01T07:38:16.550Z,37
2022-12-01T07:39:13.274Z,39
2022-12-01T07:40:13.268Z,36
2022-12-01T07:41:13.274Z,42
2022-12-01T07:42:13.269Z,34
2022-12-01T07:43:13.280Z,36
2022-12-01T07:44:13.281Z,32
2022-12-01T07:45:13.274Z,35
2022-12-01T07:46:17.355Z,33
2022-12-01T07:47:13.265Z,37
2022-12-01T07:48:13.285Z,35
2022-12-01T07:49:13.281Z,32
2022-12-01T07:50:13.273Z,29
2022-12-01T07:51:13.256Z,34
2022-12-01T07:52:13.281Z,35
2022-12-01T07:53:13.291Z,32
2022-12-01T07:54:13.285Z,34
2022-12-01T07:55:13.282Z,32
2022-12-01T07:56:13.259Z,25
2022-12-01T07:57:13.253Z,34
2022-12-01T07:58:13.259Z,23
2022-12-01T07:59:13.272Z,26
2022-12-01T08:00:13.274Z,26
2022-12-01T08:01:13.386Z,23
2022-12-01T08:02:13.471Z,28
2022-12-01T08:03:13.458Z,27
2022-12-01T08:04:13.258Z,25
2022-12-01T08:05:13.267Z,23
2022-12-01T08:06:13.277Z,28
2022-12-01T08:07:13.288Z,27
2022-12-01T08:08:13.357Z,28
2022-12-01T08:09:13.266Z,25
2022-12-01T08:10:13.286Z,32
2022-12-01T08:11:13.293Z,27
2022-12-01T08:12:13.300Z,31
2022-12-01T08:13:17.323Z,31
2022-12-01T08:14:13.283Z,27
2022-12-01T08:15:13.298Z,32
2022-12-01T08:16:13.506Z,33
2022-12-01T08:17:13.269Z,36
2022-12-01T08:18:13.265Z,32
2022-12-01T08:19:13.288Z,31
2022-12-01T08:20:13.290Z,34
2022-12-01T08:21:13.299Z,34
2022-12-01T08:22:13.304Z,38
2022-12-01T08:23:13.295Z,35
2022-12-01T08:24:13.280Z,33
2022-12-01T08:25:13.294Z,37
2022-12-01T08:26:13.314Z,33
2022-12-01T08:27:13.293Z,34
2022-12-01T08:28:13.291Z,32
2022-12-01T08:29:18.503Z,33
2022-12-01T08:30:13.288Z,28
2022-12-01T08:31:13.391Z,30
2022-12-01T08:32:13.293Z,31
2022-12-01T08:33:13.312Z,37
2022-12-01T08:34:13.268Z,29
2022-12-01T08:35:13.292Z,29
2022-12-01T08:36:13.289Z,31
2022-12-01T08:37:13.275Z,28
2022-12-01T08:38:13.288Z,31
2022-12-01T08:39:13.272Z,35
2022-12-01T08:40:13.297Z,33
2022-12-01T08:41:13.303Z,36
2022-12-01T08:42:13.290Z,29
2022-12-01T08:43:23.164Z,30
2022-12-01T08:44:13.394Z,33
2022-12-01T08:45:13.296Z,36
2022-12-01T08:46:13.397Z,31
2022-12-01T08:47:17.244Z,31
2022-12-01T08:48:13.282Z,34
2022-12-01T08:49:13.282Z,29
2022-12-01T08:50:13.273Z,32
2022-12-01T08:51:13.273Z,34
2022-12-01T08:52:13.299Z,35
2022-12-01T08:53:13.282Z,36
2022-12-01T08:55:13.302Z,30
2022-12-01T08:56:13.307Z,31
2022-12-01T08:57:13.288Z,28
2022-12-01T08:58:13.283Z,27
2022-12-01T09:00:13.282Z,27
2022-12-01T09:01:13.282Z,27
2022-12-01T09:02:13.348Z,29
2022-12-01T09:03:13.307Z,24
2022-12-01T09:05:13.341Z,26
2022-12-01T09:06:13.303Z,27
2022-12-01T09:07:13.291Z,24
2022-12-01T09:08:13.389Z,27
2022-12-01T09:09:13.294Z,26
2022-12-01T09:10:13.300Z,23
2022-12-01T09:11:13.303Z,27
2022-12-01T09:12:13.304Z,26
2022-12-01T09:13:13.292Z,24
2022-12-01T09:14:13.301Z,31
2022-12-01T09:15:13.297Z,24
2022-12-01T09:16:13.307Z,26
2022-12-01T09:17:13.292Z,26
2022-12-01T09:18:13.284Z,24
2022-12-01T09:19:13.559Z,28
2022-12-01T09:20:13.307Z,23
2022-12-01T09:21:13.315Z,30
2022-12-01T09:22:13.309Z,27
2022-12-01T09:23:13.288Z,25
2022-12-01T09:24:13.302Z,24
2022-12-01T09:25:13.285Z,19
2022-12-01T09:26:13.935Z,28
2022-12-01T09:27:13.293Z,29
2022-12-01T09:28:13.294Z,20
2022-12-01T09:29:13.279Z,22
2022-12-01T09:30:13.275Z,21
2022-12-01T09:31:13.353Z,25
2022-12-01T09:32:13.302Z,26
2022-12-01T09:33:13.286Z,27
2022-12-01T09:34:13.286Z,27
2022-12-01T09:35:13.324Z,27
2022-12-01T09:36:13.287Z,28
2022-12-01T09:37:13.303Z,30
2022-12-01T09:38:13.307Z,25
2022-12-01T09:39:13.320Z,30
2022-12-01T09:40:13.294Z,26
2022-12-01T09:41:13.304Z,32
2022-12-01T09:42:13.296Z,29
2022-12-01T09:43:13.290Z,31
2022-12-01T09:44:13.294Z,31
2022-12-01T09:45:13.295Z,26
2022-12-01T09:46:13.353Z,31
2022-12-01T09:47:13.405Z,31
2022-12-01T09:48:13.315Z,34
2022-12-01T09:49:13.316Z,32
2022-12-01T09:50:13.312Z,34
2022-12-01T09:51:13.303Z,32
2022-12-01T09:52:13.314Z,33
2022-12-01T09:53:13.349Z,33
2022-12-01T09:54:13.309Z,26
2022-12-01T09:55:13.301Z,31
2022-12-01T09:56:13.308Z,31
2022-12-01T09:57:13.298Z,28
2022-12-01T09:58:13.304Z,34
2022-12-01T09:59:13.299Z,35
2022-12-01T10:00:13.308Z,30
2022-12-01T10:01:13.316Z,31
2022-12-01T10:02:13.411Z,32
2022-12-01T10:03:13.308Z,32
2022-12-01T10:05:13.365Z,29
2022-12-01T10:06:29.272Z,37
2022-12-01T10:07:13.306Z,28
2022-12-01T10:08:13.322Z,36
2022-12-01T10:09:13.315Z,26
2022-12-01T10:10:13.311Z,31
2022-12-01T10:11:13.316Z,22
2022-12-01T10:12:13.322Z,34
2022-12-01T10:13:13.305Z,32
2022-12-01T10:14:19.274Z,31
2022-12-01T10:15:13.316Z,34
2022-12-01T10:16:13.374Z,31
2022-12-01T10:17:13.310Z,27
2022-12-01T10:18:13.304Z,30
2022-12-01T10:19:13.307Z,35
2022-12-01T10:20:13.293Z,33
2022-12-01T10:21:13.309Z,34
2022-12-01T10:22:13.316Z,31
2022-12-01T10:23:13.314Z,30
2022-12-01T10:24:13.305Z,32
2022-12-01T10:25:13.309Z,31
2022-12-01T10:26:13.317Z,34
2022-12-01T10:27:13.314Z,29
2022-12-01T10:28:13.317Z,28
2022-12-01T10:29:13.313Z,30
2022-12-01T10:30:13.312Z,29
2022-12-01T10:31:13.361Z,33
2022-12-01T10:32:13.317Z,32
2022-12-01T10:33:13.312Z,34
2022-12-01T10:34:13.329Z,34
2022-12-01T10:35:13.323Z,35
2022-12-01T10:36:13.310Z,33
2022-12-01T10:37:13.342Z,32
2022-12-01T10:38:13.394Z,32
2022-12-01T10:39:13.312Z,27
2022-12-01T10:40:13.310Z,30
2022-12-01T10:41:13.321Z,32
2022-12-01T10:42:13.326Z,34
2022-12-01T10:43:13.319Z,27
2022-12-01T10:44:13.339Z,30
2022-12-01T10:45:13.320Z,31
2022-12-01T10:46:13.362Z,27
2022-12-01T10:47:13.317Z,32
2022-12-01T10:48:13.320Z,30
2022-12-01T10:49:13.317Z,32
2022-12-01T10:50:13.315Z,33
2022-12-01T10:51:13.317Z,29
2022-12-01T10:52:13.321Z,33
2022-12-01T10:53:13.315Z,39
2022-12-01T10:54:13.325Z,33
2022-12-01T10:55:13.307Z,33
2022-12-01T10:56:13.332Z,36
2022-12-01T10:57:13.321Z,36
2022-12-01T10:58:13.314Z,37
2022-12-01T10:59:13.315Z,36
2022-12-01T11:00:36.085Z,32
2022-12-01T11:01:13.409Z,37
2022-12-01T11:02:13.593Z,34
2022-12-01T11:03:18.257Z,37
2022-12-01T11:04:13.326Z,37
2022-12-01T11:05:13.320Z,41
2022-12-01T11:06:13.310Z,36
2022-12-01T11:07:13.305Z,36
2022-12-01T11:08:13.350Z,35
2022-12-01T11:09:13.328Z,35
2022-12-01T11:10:13.319Z,20
2022-12-01T11:11:13.326Z,22
2022-12-01T11:12:13.325Z,22
2022-12-01T11:13:13.323Z,35
2022-12-01T11:14:13.837Z,30
2022-12-01T11:15:13.313Z,34
2022-12-01T11:16:13.356Z,30
2022-12-01T11:17:13.327Z,36
2022-12-01T11:18:13.323Z,33
2022-12-01T11:19:13.405Z,37
2022-12-01T11:20:13.416Z,31
2022-12-01T11:21:13.321Z,33
2022-12-01T11:22:13.324Z,21
2022-12-01T11:23:13.323Z,36
2022-12-01T11:24:13.322Z,34
2022-12-01T11:25:13.328Z,34
2022-12-01T11:26:13.327Z,35
2022-12-01T11:27:13.326Z,39
2022-12-01T11:28:13.336Z,30
2022-12-01T11:29:13.316Z,37
2022-12-01T11:30:13.329Z,34
2022-12-01T11:31:13.314Z,35
2022-12-01T11:32:13.345Z,40
2022-12-01T11:33:13.320Z,35
2022-12-01T11:34:13.324Z,31
2022-12-01T11:35:13.341Z,35
2022-12-01T11:37:13.320Z,40
2022-12-01T11:38:29.334Z,35
2022-12-01T11:39:13.345Z,37
2022-12-01T11:40:13.330Z,36
2022-12-01T11:41:13.322Z,34
2022-12-01T11:42:13.316Z,37
2022-12-01T11:43:13.333Z,34
2022-12-01T11:44:35.664Z,38
2022-12-01T11:45:13.308Z,35
2022-12-01T11:46:13.364Z,41
2022-12-01T11:47:22.632Z,40
2022-12-01T11:48:13.341Z,38
2022-12-01T11:49:13.327Z,33
2022-12-01T11:50:13.318Z,40
2022-12-01T11:51:13.332Z,42
2022-12-01T11:52:13.366Z,41
2022-12-01T11:53:13.336Z,45
2022-12-01T11:54:13.334Z,39
2022-12-01T11:55:13.343Z,35
2022-12-01T11:56:13.342Z,37
2022-12-01T11:57:33.586Z,38
2022-12-01T11:58:13.389Z,38
2022-12-01T11:59:13.335Z,39
2022-12-01T12:00:13.325Z,42
2022-12-01T12:01:17.562Z,43
2022-12-01T12:02:13.375Z,38
2022-12-01T12:03:13.436Z,39
2022-12-01T12:04:13.333Z,38
2022-12-01T12:05:13.324Z,41
2022-12-01T12:06:42.379Z,43
2022-12-01T12:07:13.330Z,44
2022-12-01T12:08:13.331Z,42
2022-12-01T12:09:13.577Z,45
2022-12-01T12:10:13.394Z,41
2022-12-01T12:11:13.337Z,41
2022-12-01T12:12:13.337Z,42
2022-12-01T12:13:13.349Z,40
2022-12-01T12:14:19.852Z,39
2022-12-01T12:15:13.344Z,40
2022-12-01T12:16:13.362Z,43
2022-12-01T12:17:13.346Z,39
2022-12-01T12:18:13.385Z,43
2022-12-01T12:19:13.318Z,42
2022-12-01T12:21:13.326Z,36
2022-12-01T12:22:13.344Z,41
2022-12-01T12:23:13.343Z,43
2022-12-01T12:24:13.337Z,40
2022-12-01T12:25:13.350Z,44
2022-12-01T12:26:13.391Z,44
2022-12-01T12:27:13.330Z,39
2022-12-01T12:28:13.348Z,40
2022-12-01T12:29:14.143Z,44
2022-12-01T12:30:13.435Z,44
2022-12-01T12:31:13.416Z,38
2022-12-01T12:32:13.335Z,43
2022-12-01T12:33:13.575Z,40
2022-12-01T12:34:13.350Z,42
2022-12-01T12:35:13.338Z,41
2022-12-01T12:36:13.346Z,42
2022-12-01T12:37:13.338Z,39
2022-12-01T12:39:16.625Z,43
2022-12-01T12:40:13.343Z,39
2022-12-01T12:41:13.365Z,40
2022-12-01T12:42:13.331Z,43
2022-12-01T12:43:13.340Z,42
2022-12-01T16:46:13.467Z,61
2022-12-01T18:54:13.419Z,44
2022-12-01T19:54:13.423Z,50
2022-12-01T20:11:13.441Z,50
2022-12-01T23:26:13.451Z,63
